DAL2197 KSFO-KLAX
Flight info
| Callsign | DAL2197 |
|---|---|
| Flight time | 0h 54m |
| Altitude | 33000 |
| Route | WESLA5 SUSEY DCT EBAYE DCT BURGL IRNMN2 |
| Aircraft | B739/M-SDE2E3FGHIRWXY/LB1 |
Departure
| Time | 2026-04-25 07:02 |
|---|---|
| Airport | San Francisco International Airport (KSFO) |
Arrival
| Time | 2026-04-25 07:57 |
|---|---|
| Airport | Los Angeles International Airport (KLAX) |
| Time | Latitude | Longitude | Altitude | Speed | Heading |
|---|---|---|---|---|---|
| 2026-04-25 06:44 | 37.61234 | -122.38410 | 21 ft | 0 kts | 298° |
| 2026-04-25 06:47 | 37.61228 | -122.38395 | 21 ft | 4 kts | 298° |
| 2026-04-25 06:48 | 37.61218 | -122.38371 | 21 ft | 4 kts | 306° |
| 2026-04-25 06:48 | 37.61202 | -122.38359 | 22 ft | 4 kts | 15° |
| 2026-04-25 06:48 | 37.61180 | -122.38371 | 21 ft | 4 kts | 28° |
| 2026-04-25 06:48 | 37.61162 | -122.38383 | 21 ft | 0 kts | 28° |
| 2026-04-25 06:53 | 37.61166 | -122.38381 | 21 ft | 3 kts | 28° |
| 2026-04-25 06:53 | 37.61190 | -122.38362 | 22 ft | 5 kts | 39° |
| 2026-04-25 06:53 | 37.61218 | -122.38312 | 21 ft | 11 kts | 61° |
| 2026-04-25 06:53 | 37.61276 | -122.38222 | 21 ft | 15 kts | 27° |
| 2026-04-25 06:54 | 37.61369 | -122.38162 | 23 ft | 15 kts | 27° |
| 2026-04-25 06:54 | 37.61402 | -122.38060 | 22 ft | 14 kts | 82° |
| 2026-04-25 06:54 | 37.61473 | -122.37999 | 22 ft | 13 kts | 27° |
| 2026-04-25 06:54 | 37.61545 | -122.37951 | 22 ft | 12 kts | 27° |
| 2026-04-25 06:55 | 37.61615 | -122.37906 | 22 ft | 12 kts | 27° |
| 2026-04-25 06:55 | 37.61688 | -122.37873 | 21 ft | 12 kts | 11° |
| 2026-04-25 06:55 | 37.61779 | -122.37860 | 21 ft | 15 kts | 9° |
| 2026-04-25 06:55 | 37.61792 | -122.37756 | 22 ft | 16 kts | 109° |
| 2026-04-25 06:56 | 37.61752 | -122.37615 | 22 ft | 19 kts | 111° |
| 2026-04-25 06:56 | 37.61698 | -122.37461 | 21 ft | 20 kts | 116° |
| 2026-04-25 06:56 | 37.61637 | -122.37316 | 22 ft | 19 kts | 118° |
| 2026-04-25 06:56 | 37.61576 | -122.37172 | 23 ft | 19 kts | 118° |
| 2026-04-25 06:57 | 37.61521 | -122.37035 | 22 ft | 18 kts | 116° |
| 2026-04-25 06:57 | 37.61458 | -122.36909 | 21 ft | 17 kts | 129° |
| 2026-04-25 06:57 | 37.61382 | -122.36804 | 22 ft | 17 kts | 126° |
| 2026-04-25 06:57 | 37.61327 | -122.36685 | 22 ft | 16 kts | 118° |
| 2026-04-25 06:58 | 37.61277 | -122.36568 | 21 ft | 15 kts | 118° |
| 2026-04-25 06:58 | 37.61229 | -122.36456 | 23 ft | 15 kts | 118° |
| 2026-04-25 06:58 | 37.61184 | -122.36348 | 23 ft | 14 kts | 118° |
| 2026-04-25 06:58 | 37.61141 | -122.36247 | 22 ft | 14 kts | 118° |
| 2026-04-25 06:59 | 37.61100 | -122.36148 | 21 ft | 13 kts | 118° |
| 2026-04-25 06:59 | 37.61061 | -122.36052 | 23 ft | 12 kts | 112° |
| 2026-04-25 06:59 | 37.61052 | -122.35968 | 21 ft | 8 kts | 83° |
| 2026-04-25 06:59 | 37.61058 | -122.35945 | 21 ft | 1 kts | 63° |
| 2026-04-25 07:00 | 37.61061 | -122.35938 | 22 ft | 1 kts | 55° |
| 2026-04-25 07:00 | 37.61066 | -122.35931 | 21 ft | 1 kts | 49° |
| 2026-04-25 07:00 | 37.61078 | -122.35919 | 21 ft | 4 kts | 35° |
| 2026-04-25 07:00 | 37.61104 | -122.35900 | 22 ft | 5 kts | 28° |
| 2026-04-25 07:01 | 37.61131 | -122.35882 | 21 ft | 5 kts | 28° |
| 2026-04-25 07:01 | 37.61158 | -122.35866 | 22 ft | 4 kts | 14° |
| 2026-04-25 07:01 | 37.61188 | -122.35883 | 21 ft | 6 kts | 315° |
| 2026-04-25 07:01 | 37.61234 | -122.35984 | 24 ft | 34 kts | 298° |
| 2026-04-25 07:02 | 37.61451 | -122.36504 | 21 ft | 104 kts | 297° |
| 2026-04-25 07:02 | 37.61881 | -122.37537 | 22 ft | 160 kts | 297° |
| 2026-04-25 07:02 | 37.62456 | -122.38875 | 431 ft | 171 kts | 298° |
| 2026-04-25 07:02 | 37.62942 | -122.40078 | 1445 ft | 155 kts | 298° |
| 2026-04-25 07:03 | 37.63503 | -122.41211 | 1793 ft | 171 kts | 302° |
| 2026-04-25 07:03 | 37.64147 | -122.42522 | 2147 ft | 192 kts | 295° |
| 2026-04-25 07:03 | 37.64726 | -122.44023 | 2663 ft | 205 kts | 296° |
| 2026-04-25 07:03 | 37.65394 | -122.45592 | 2990 ft | 210 kts | 298° |
| 2026-04-25 07:04 | 37.66071 | -122.47151 | 2951 ft | 210 kts | 298° |
| 2026-04-25 07:04 | 37.66682 | -122.48739 | 2982 ft | 208 kts | 284° |
| 2026-04-25 07:04 | 37.66631 | -122.50484 | 3119 ft | 212 kts | 249° |
| 2026-04-25 07:04 | 37.65831 | -122.51971 | 3691 ft | 221 kts | 219° |
| 2026-04-25 07:05 | 37.64454 | -122.52732 | 4336 ft | 233 kts | 186° |
| 2026-04-25 07:05 | 37.62927 | -122.52553 | 5092 ft | 234 kts | 164° |
| 2026-04-25 07:05 | 37.61443 | -122.52006 | 5983 ft | 231 kts | 162° |
| 2026-04-25 07:05 | 37.59891 | -122.51420 | 6771 ft | 233 kts | 163° |
| 2026-04-25 07:06 | 37.58394 | -122.50864 | 7569 ft | 233 kts | 163° |
| 2026-04-25 07:06 | 37.56885 | -122.50305 | 8285 ft | 237 kts | 163° |
| 2026-04-25 07:06 | 37.55353 | -122.49746 | 9032 ft | 239 kts | 164° |
| 2026-04-25 07:06 | 37.53804 | -122.49187 | 9765 ft | 242 kts | 164° |
| 2026-04-25 07:07 | 37.52259 | -122.48633 | 10443 ft | 245 kts | 164° |
| 2026-04-25 07:07 | 37.50627 | -122.48051 | 10802 ft | 264 kts | 164° |
| 2026-04-25 07:07 | 37.48928 | -122.47153 | 10967 ft | 289 kts | 142° |
| 2026-04-25 07:07 | 37.47437 | -122.45452 | 11182 ft | 312 kts | 135° |
| 2026-04-25 07:08 | 37.45940 | -122.43490 | 11421 ft | 332 kts | 133° |
| 2026-04-25 07:08 | 37.44413 | -122.41398 | 11983 ft | 341 kts | 132° |
| 2026-04-25 07:08 | 37.42868 | -122.39259 | 12677 ft | 345 kts | 132° |
| 2026-04-25 07:08 | 37.41301 | -122.37092 | 13395 ft | 349 kts | 132° |
| 2026-04-25 07:09 | 37.39717 | -122.34909 | 14057 ft | 354 kts | 132° |
| 2026-04-25 07:09 | 37.38066 | -122.32647 | 14696 ft | 358 kts | 132° |
| 2026-04-25 07:09 | 37.36362 | -122.30321 | 15311 ft | 363 kts | 133° |
| 2026-04-25 07:09 | 37.34705 | -122.28067 | 15915 ft | 368 kts | 133° |
| 2026-04-25 07:10 | 37.32964 | -122.25704 | 16638 ft | 370 kts | 133° |
| 2026-04-25 07:10 | 37.31272 | -122.23410 | 17228 ft | 375 kts | 133° |
| 2026-04-25 07:10 | 37.29557 | -122.21089 | 17861 ft | 377 kts | 133° |
| 2026-04-25 07:10 | 37.27823 | -122.18743 | 18360 ft | 384 kts | 134° |
| 2026-04-25 07:11 | 37.25985 | -122.16259 | 18834 ft | 390 kts | 134° |
| 2026-04-25 07:11 | 37.24159 | -122.13792 | 19439 ft | 393 kts | 134° |
| 2026-04-25 07:11 | 37.22293 | -122.11275 | 20033 ft | 395 kts | 135° |
| 2026-04-25 07:11 | 37.20475 | -122.08828 | 20551 ft | 400 kts | 135° |
| 2026-04-25 07:12 | 37.18570 | -122.06265 | 21092 ft | 404 kts | 135° |
| 2026-04-25 07:12 | 37.14695 | -122.01039 | 22153 ft | 413 kts | 136° |
| 2026-04-25 07:12 | 37.12727 | -121.98391 | 22712 ft | 416 kts | 136° |
| 2026-04-25 07:13 | 37.10740 | -121.95728 | 23232 ft | 420 kts | 137° |
| 2026-04-25 07:13 | 37.08735 | -121.93043 | 23709 ft | 424 kts | 137° |
| 2026-04-25 07:13 | 37.06737 | -121.90361 | 24180 ft | 426 kts | 137° |
| 2026-04-25 07:13 | 37.04687 | -121.87680 | 24658 ft | 427 kts | 139° |
| 2026-04-25 07:14 | 37.02630 | -121.84969 | 25066 ft | 432 kts | 137° |
| 2026-04-25 07:14 | 37.00576 | -121.82200 | 25455 ft | 436 kts | 137° |
| 2026-04-25 07:14 | 36.98505 | -121.79402 | 25860 ft | 440 kts | 138° |
| 2026-04-25 07:14 | 36.96412 | -121.76583 | 26246 ft | 444 kts | 138° |
| 2026-04-25 07:15 | 36.94299 | -121.73751 | 26653 ft | 447 kts | 138° |
| 2026-04-25 07:15 | 36.92173 | -121.70911 | 27076 ft | 450 kts | 139° |
| 2026-04-25 07:15 | 36.90051 | -121.68082 | 27513 ft | 452 kts | 139° |
| 2026-04-25 07:15 | 36.87892 | -121.65209 | 27925 ft | 455 kts | 139° |
| 2026-04-25 07:16 | 36.85718 | -121.62320 | 28325 ft | 458 kts | 139° |
| 2026-04-25 07:16 | 36.83527 | -121.59412 | 28669 ft | 462 kts | 139° |
| 2026-04-25 07:16 | 36.81309 | -121.56472 | 28984 ft | 467 kts | 140° |
| 2026-04-25 07:16 | 36.79078 | -121.53516 | 29351 ft | 469 kts | 140° |
| 2026-04-25 07:17 | 36.76834 | -121.50553 | 29806 ft | 471 kts | 140° |
| 2026-04-25 07:17 | 36.74563 | -121.47635 | 30345 ft | 466 kts | 141° |
| 2026-04-25 07:17 | 36.72358 | -121.44747 | 30782 ft | 467 kts | 140° |
| 2026-04-25 07:17 | 36.70145 | -121.41770 | 31154 ft | 468 kts | 139° |
| 2026-04-25 07:18 | 36.67929 | -121.38789 | 31510 ft | 469 kts | 140° |
| 2026-04-25 07:18 | 36.65701 | -121.35826 | 31934 ft | 468 kts | 140° |
| 2026-04-25 07:18 | 36.63475 | -121.32884 | 32370 ft | 466 kts | 140° |
| 2026-04-25 07:18 | 36.61248 | -121.29952 | 32754 ft | 466 kts | 140° |
| 2026-04-25 07:19 | 36.59016 | -121.27021 | 33032 ft | 468 kts | 140° |
| 2026-04-25 07:19 | 36.56764 | -121.24070 | 32999 ft | 471 kts | 140° |
| 2026-04-25 07:19 | 36.52298 | -121.18212 | 32993 ft | 467 kts | 140° |
| 2026-04-25 07:20 | 36.47845 | -121.12446 | 33014 ft | 460 kts | 140° |
| 2026-04-25 07:20 | 36.43479 | -121.06660 | 32987 ft | 458 kts | 140° |
| 2026-04-25 07:21 | 36.39174 | -121.00709 | 33009 ft | 470 kts | 137° |
| 2026-04-25 07:21 | 36.34967 | -120.94558 | 32982 ft | 470 kts | 137° |
| 2026-04-25 07:22 | 36.30726 | -120.88391 | 32992 ft | 469 kts | 137° |
| 2026-04-25 07:22 | 36.26475 | -120.82249 | 32986 ft | 471 kts | 135° |
| 2026-04-25 07:23 | 36.22239 | -120.76099 | 32984 ft | 468 kts | 138° |
| 2026-04-25 07:23 | 36.17943 | -120.70056 | 32977 ft | 467 kts | 138° |
| 2026-04-25 07:24 | 36.13703 | -120.64051 | 32980 ft | 466 kts | 137° |
| 2026-04-25 07:24 | 36.09455 | -120.58010 | 32971 ft | 465 kts | 137° |
| 2026-04-25 07:25 | 36.07221 | -120.55195 | 32933 ft | 448 kts | 153° |
| 2026-04-25 07:25 | 36.04710 | -120.52959 | 32929 ft | 456 kts | 138° |
| 2026-04-25 07:25 | 36.02871 | -120.49679 | 33022 ft | 469 kts | 127° |
| 2026-04-25 07:25 | 36.01097 | -120.46342 | 32953 ft | 471 kts | 132° |
| 2026-04-25 07:26 | 35.96958 | -120.40118 | 32980 ft | 467 kts | 138° |
| 2026-04-25 07:26 | 35.92628 | -120.34188 | 32950 ft | 466 kts | 138° |
| 2026-04-25 07:27 | 35.88361 | -120.28181 | 32955 ft | 464 kts | 140° |
| 2026-04-25 07:27 | 35.83545 | -120.23218 | 32971 ft | 446 kts | 158° |
| 2026-04-25 07:28 | 35.78171 | -120.19452 | 32986 ft | 444 kts | 158° |
| 2026-04-25 07:28 | 35.72862 | -120.15537 | 32960 ft | 444 kts | 156° |
| 2026-04-25 07:29 | 35.67592 | -120.11551 | 32960 ft | 445 kts | 156° |
| 2026-04-25 07:29 | 35.62317 | -120.07566 | 32978 ft | 445 kts | 156° |
| 2026-04-25 07:30 | 35.57064 | -120.03603 | 32936 ft | 446 kts | 156° |
| 2026-04-25 07:30 | 35.51774 | -119.99616 | 32962 ft | 447 kts | 156° |
| 2026-04-25 07:31 | 35.46467 | -119.95621 | 32979 ft | 448 kts | 156° |
| 2026-04-25 07:31 | 35.41146 | -119.91620 | 32951 ft | 449 kts | 156° |
| 2026-04-25 07:32 | 35.35868 | -119.87656 | 32968 ft | 448 kts | 156° |
| 2026-04-25 07:32 | 35.30547 | -119.83669 | 32975 ft | 448 kts | 156° |
| 2026-04-25 07:33 | 35.25353 | -119.79417 | 32963 ft | 453 kts | 150° |
| 2026-04-25 07:33 | 35.20398 | -119.74648 | 32954 ft | 453 kts | 148° |
| 2026-04-25 07:34 | 35.15455 | -119.69902 | 32943 ft | 450 kts | 149° |
| 2026-04-25 07:34 | 35.10494 | -119.65243 | 32865 ft | 450 kts | 150° |
| 2026-04-25 07:35 | 35.08016 | -119.62940 | 32212 ft | 456 kts | 149° |
| 2026-04-25 07:35 | 35.05494 | -119.60598 | 31560 ft | 455 kts | 149° |
| 2026-04-25 07:35 | 35.02971 | -119.58254 | 30819 ft | 456 kts | 149° |
| 2026-04-25 07:35 | 35.00443 | -119.55906 | 30107 ft | 457 kts | 148° |
| 2026-04-25 07:36 | 34.97916 | -119.53560 | 29484 ft | 455 kts | 148° |
| 2026-04-25 07:36 | 34.95404 | -119.51230 | 28877 ft | 453 kts | 148° |
| 2026-04-25 07:36 | 34.92912 | -119.48915 | 28315 ft | 448 kts | 148° |
| 2026-04-25 07:36 | 34.90441 | -119.46634 | 27765 ft | 444 kts | 149° |
| 2026-04-25 07:37 | 34.88003 | -119.44438 | 27205 ft | 440 kts | 149° |
| 2026-04-25 07:37 | 34.85544 | -119.42247 | 26671 ft | 436 kts | 150° |
| 2026-04-25 07:37 | 34.83107 | -119.40082 | 26140 ft | 433 kts | 150° |
| 2026-04-25 07:37 | 34.80688 | -119.37928 | 25630 ft | 429 kts | 149° |
| 2026-04-25 07:38 | 34.78289 | -119.35786 | 25112 ft | 427 kts | 149° |
| 2026-04-25 07:38 | 34.75904 | -119.33652 | 24607 ft | 424 kts | 149° |
| 2026-04-25 07:38 | 34.73525 | -119.31542 | 24101 ft | 421 kts | 150° |
| 2026-04-25 07:38 | 34.71155 | -119.29473 | 23628 ft | 418 kts | 150° |
| 2026-04-25 07:39 | 34.68829 | -119.27448 | 23073 ft | 416 kts | 150° |
| 2026-04-25 07:39 | 34.66484 | -119.25405 | 22519 ft | 414 kts | 150° |
| 2026-04-25 07:39 | 34.64157 | -119.23375 | 21979 ft | 411 kts | 150° |
| 2026-04-25 07:39 | 34.61835 | -119.21371 | 21452 ft | 408 kts | 150° |
| 2026-04-25 07:40 | 34.59529 | -119.19389 | 20945 ft | 405 kts | 150° |
| 2026-04-25 07:40 | 34.57227 | -119.17412 | 20447 ft | 403 kts | 150° |
| 2026-04-25 07:40 | 34.54956 | -119.15436 | 19944 ft | 400 kts | 149° |
| 2026-04-25 07:40 | 34.52707 | -119.13443 | 19459 ft | 399 kts | 149° |
| 2026-04-25 07:41 | 34.50472 | -119.11452 | 18925 ft | 399 kts | 149° |
| 2026-04-25 07:41 | 34.48275 | -119.09484 | 18461 ft | 398 kts | 149° |
| 2026-04-25 07:41 | 34.46038 | -119.07517 | 17915 ft | 395 kts | 149° |
| 2026-04-25 07:41 | 34.43821 | -119.05567 | 17373 ft | 393 kts | 149° |
| 2026-04-25 07:42 | 34.41616 | -119.03644 | 16881 ft | 389 kts | 149° |
| 2026-04-25 07:42 | 34.39416 | -119.01745 | 16376 ft | 386 kts | 149° |
| 2026-04-25 07:42 | 34.37235 | -118.99863 | 15883 ft | 383 kts | 149° |
| 2026-04-25 07:42 | 34.35074 | -118.97994 | 15405 ft | 380 kts | 149° |
| 2026-04-25 07:43 | 34.32942 | -118.96118 | 14936 ft | 378 kts | 148° |
| 2026-04-25 07:43 | 34.30874 | -118.94232 | 14427 ft | 377 kts | 148° |
| 2026-04-25 07:43 | 34.28786 | -118.92327 | 13958 ft | 375 kts | 148° |
| 2026-04-25 07:43 | 34.26702 | -118.90433 | 13423 ft | 373 kts | 148° |
| 2026-04-25 07:44 | 34.24640 | -118.88558 | 12919 ft | 370 kts | 147° |
| 2026-04-25 07:44 | 34.22599 | -118.86683 | 12445 ft | 367 kts | 147° |
| 2026-04-25 07:44 | 34.20608 | -118.84847 | 12296 ft | 354 kts | 147° |
| 2026-04-25 07:44 | 34.18680 | -118.83072 | 12135 ft | 343 kts | 147° |
| 2026-04-25 07:45 | 34.16808 | -118.81353 | 12015 ft | 332 kts | 147° |
| 2026-04-25 07:45 | 34.15050 | -118.79607 | 11792 ft | 326 kts | 142° |
| 2026-04-25 07:45 | 34.13391 | -118.77790 | 11435 ft | 325 kts | 141° |
| 2026-04-25 07:45 | 34.11747 | -118.75950 | 11000 ft | 324 kts | 141° |
| 2026-04-25 07:46 | 34.10100 | -118.74127 | 10673 ft | 320 kts | 140° |
| 2026-04-25 07:46 | 34.08505 | -118.72256 | 10328 ft | 317 kts | 141° |
| 2026-04-25 07:46 | 34.06820 | -118.70541 | 9958 ft | 316 kts | 143° |
| 2026-04-25 07:46 | 34.05153 | -118.68819 | 9594 ft | 314 kts | 142° |
| 2026-04-25 07:47 | 34.03628 | -118.67001 | 9454 ft | 307 kts | 126° |
| 2026-04-25 07:47 | 34.02786 | -118.64664 | 9173 ft | 305 kts | 104° |
| 2026-04-25 07:47 | 34.02466 | -118.62144 | 8858 ft | 303 kts | 96° |
| 2026-04-25 07:47 | 34.02269 | -118.59650 | 8529 ft | 302 kts | 96° |
| 2026-04-25 07:48 | 34.02062 | -118.57106 | 8195 ft | 301 kts | 96° |
| 2026-04-25 07:48 | 34.01848 | -118.54638 | 7902 ft | 298 kts | 96° |
| 2026-04-25 07:48 | 34.01625 | -118.52175 | 7654 ft | 294 kts | 97° |
| 2026-04-25 07:48 | 34.01399 | -118.49748 | 7407 ft | 290 kts | 97° |
| 2026-04-25 07:49 | 34.01171 | -118.47352 | 7168 ft | 286 kts | 97° |
| 2026-04-25 07:49 | 34.01069 | -118.44989 | 6916 ft | 281 kts | 82° |
| 2026-04-25 07:49 | 34.01466 | -118.42717 | 6706 ft | 274 kts | 76° |
| 2026-04-25 07:49 | 34.01892 | -118.40491 | 6473 ft | 271 kts | 77° |
| 2026-04-25 07:50 | 34.02285 | -118.38292 | 6237 ft | 264 kts | 77° |
| 2026-04-25 07:50 | 34.02665 | -118.36144 | 6054 ft | 258 kts | 78° |
| 2026-04-25 07:50 | 34.02941 | -118.34047 | 5994 ft | 247 kts | 83° |
| 2026-04-25 07:50 | 34.03133 | -118.32074 | 6012 ft | 233 kts | 83° |
| 2026-04-25 07:51 | 34.03311 | -118.30203 | 5955 ft | 218 kts | 83° |
| 2026-04-25 07:51 | 34.03492 | -118.28402 | 5679 ft | 215 kts | 82° |
| 2026-04-25 07:51 | 34.03699 | -118.26612 | 5320 ft | 216 kts | 82° |
| 2026-04-25 07:51 | 34.03899 | -118.24839 | 5006 ft | 214 kts | 82° |
| 2026-04-25 07:52 | 34.04085 | -118.23096 | 4769 ft | 207 kts | 84° |
| 2026-04-25 07:52 | 34.03915 | -118.21406 | 4450 ft | 201 kts | 116° |
| 2026-04-25 07:52 | 34.02979 | -118.20176 | 3994 ft | 202 kts | 155° |
| 2026-04-25 07:52 | 34.01635 | -118.19861 | 3659 ft | 198 kts | 182° |
| 2026-04-25 07:53 | 34.00276 | -118.19983 | 3301 ft | 199 kts | 184° |
| 2026-04-25 07:53 | 33.98916 | -118.20138 | 3045 ft | 194 kts | 185° |
| 2026-04-25 07:53 | 33.97608 | -118.20453 | 2990 ft | 195 kts | 207° |
| 2026-04-25 07:53 | 33.96696 | -118.21645 | 3026 ft | 202 kts | 246° |
| 2026-04-25 07:54 | 33.96532 | -118.23312 | 3024 ft | 201 kts | 276° |
| 2026-04-25 07:54 | 33.96695 | -118.24984 | 2984 ft | 197 kts | 277° |
| 2026-04-25 07:54 | 33.96875 | -118.26579 | 2977 ft | 188 kts | 277° |
| 2026-04-25 07:54 | 33.96811 | -118.28105 | 2989 ft | 177 kts | 253° |
| 2026-04-25 07:55 | 33.96488 | -118.29539 | 2800 ft | 177 kts | 257° |
| 2026-04-25 07:55 | 33.96317 | -118.31013 | 2431 ft | 174 kts | 263° |
| 2026-04-25 07:55 | 33.96169 | -118.32426 | 2021 ft | 163 kts | 256° |
| 2026-04-25 07:55 | 33.95921 | -118.33785 | 1564 ft | 168 kts | 260° |
| 2026-04-25 07:56 | 33.95783 | -118.35130 | 1095 ft | 162 kts | 262° |
| 2026-04-25 07:56 | 33.95656 | -118.36411 | 853 ft | 158 kts | 261° |
| 2026-04-25 07:56 | 33.95495 | -118.37701 | 573 ft | 159 kts | 261° |
| 2026-04-25 07:56 | 33.95338 | -118.38986 | 327 ft | 154 kts | 261° |
| 2026-04-25 07:57 | 33.95207 | -118.40253 | 117 ft | 151 kts | 259° |
| 2026-04-25 07:57 | 33.95080 | -118.41435 | 93 ft | 130 kts | 264° |
| 2026-04-25 07:57 | 33.94994 | -118.42288 | 93 ft | 49 kts | 263° |
| 2026-04-25 07:57 | 33.94935 | -118.42539 | 92 ft | 29 kts | 241° |
| 2026-04-25 07:58 | 33.94811 | -118.42724 | 96 ft | 27 kts | 218° |
| 2026-04-25 07:58 | 33.94670 | -118.42770 | 96 ft | 19 kts | 158° |
| 2026-04-25 07:58 | 33.94643 | -118.42632 | 94 ft | 18 kts | 82° |
| 2026-04-25 07:58 | 33.94657 | -118.42486 | 93 ft | 17 kts | 84° |
| 2026-04-25 07:59 | 33.94670 | -118.42344 | 93 ft | 17 kts | 84° |
| 2026-04-25 07:59 | 33.94684 | -118.42207 | 93 ft | 16 kts | 82° |
| 2026-04-25 07:59 | 33.94699 | -118.42075 | 92 ft | 16 kts | 82° |
| 2026-04-25 07:59 | 33.94713 | -118.41949 | 92 ft | 15 kts | 83° |
| 2026-04-25 08:00 | 33.94725 | -118.41827 | 92 ft | 14 kts | 84° |
| 2026-04-25 08:00 | 33.94737 | -118.41711 | 92 ft | 14 kts | 82° |
| 2026-04-25 08:00 | 33.94749 | -118.41600 | 95 ft | 13 kts | 82° |
| 2026-04-25 08:00 | 33.94759 | -118.41495 | 96 ft | 13 kts | 85° |
| 2026-04-25 08:01 | 33.94773 | -118.41391 | 93 ft | 12 kts | 73° |
| 2026-04-25 08:01 | 33.94792 | -118.41291 | 93 ft | 12 kts | 82° |
| 2026-04-25 08:01 | 33.94803 | -118.41190 | 97 ft | 12 kts | 82° |
| 2026-04-25 08:01 | 33.94814 | -118.41088 | 94 ft | 12 kts | 83° |
| 2026-04-25 08:02 | 33.94824 | -118.40988 | 94 ft | 12 kts | 83° |
| 2026-04-25 08:02 | 33.94814 | -118.40896 | 95 ft | 12 kts | 136° |
| 2026-04-25 08:02 | 33.94759 | -118.40828 | 93 ft | 12 kts | 97° |
| 2026-04-25 08:02 | 33.94766 | -118.40730 | 92 ft | 12 kts | 81° |
| 2026-04-25 08:03 | 33.94777 | -118.40637 | 93 ft | 11 kts | 81° |
| 2026-04-25 08:03 | 33.94751 | -118.40576 | 94 ft | 9 kts | 168° |
| 2026-04-25 08:03 | 33.94687 | -118.40566 | 93 ft | 9 kts | 173° |
| 2026-04-25 08:03 | 33.94657 | -118.40519 | 93 ft | 5 kts | 99° |
| 2026-04-25 08:04 | 33.94655 | -118.40492 | 92 ft | 0 kts | 96° |
| 2026-04-25 08:04 | 33.94654 | -118.40492 | 92 ft | 0 kts | 96° |